Search for airport 
image banner adimage banner adimage banner ad
image banner ad

DAUU - Ouargla/Ain Beida

Located in Ouargla, Algeria

ICAO - DAUU, IATA - OGX

Data provided by Airmate  

General information

Coordinates: N31°55'53" E5°24'49"
Elevation is 498 feet MSL.
 
View others Airports in Ouargla Province

Operational data

Special qualification required
Current time UTC:
Current local time:
Weather
METAR: DAUU 291600Z 08007KT 040V100 CAVOK 42/// Q1011
TAF: TAF DAUU 291400Z 2915/2924 04006KT CAVOK
View NOTAMs / SUP AIP / TFR affecting this airport [VIEW]
Communications frequencies: [VIEW]

Runways:

RWY identifierQFULength (ft)Width (ft)SurfaceLDA (ft)
0216°9843148ASP
20196°9843148
18179°9843148
36359°9843148

Airport contact information

Address: Ouargla Algeria

Satellite view of DAUU